sensor_id;sensor_type;location;lat;lon;timestamp;P1;durP1;ratioP1;P2;durP2;ratioP2
5801;SDS011;2927;49.366;8.530;2024-03-29T00:01:59;1.93;;;0.50;;
5801;SDS011;2927;49.366;8.530;2024-03-29T00:04:24;3.20;;;0.60;;
5801;SDS011;2927;49.366;8.530;2024-03-29T00:06:50;1.37;;;0.73;;
5801;SDS011;2927;49.366;8.530;2024-03-29T00:09:15;2.00;;;0.60;;
5801;SDS011;2927;49.366;8.530;2024-03-29T00:11:41;1.80;;;0.50;;
5801;SDS011;2927;49.366;8.530;2024-03-29T00:14:06;1.30;;;0.80;;
5801;SDS011;2927;49.366;8.530;2024-03-29T00:16:32;1.03;;;0.80;;
5801;SDS011;2927;49.366;8.530;2024-03-29T00:18:57;1.10;;;0.60;;
5801;SDS011;2927;49.366;8.530;2024-03-29T00:21:23;0.80;;;0.47;;
5801;SDS011;2927;49.366;8.530;2024-03-29T00:23:49;0.77;;;0.50;;
5801;SDS011;2927;49.366;8.530;2024-03-29T00:26:16;3.53;;;0.60;;
5801;SDS011;2927;49.366;8.530;2024-03-29T00:28:41;6.20;;;0.70;;
5801;SDS011;2927;49.366;8.530;2024-03-29T00:31:07;2.23;;;0.50;;
5801;SDS011;2927;49.366;8.530;2024-03-29T00:33:33;0.90;;;0.60;;
5801;SDS011;2927;49.366;8.530;2024-03-29T00:35:59;0.60;;;0.60;;
5801;SDS011;2927;49.366;8.530;2024-03-29T00:38:25;1.23;;;0.80;;
5801;SDS011;2927;49.366;8.530;2024-03-29T00:40:50;2.13;;;0.87;;
5801;SDS011;2927;49.366;8.530;2024-03-29T00:43:16;0.50;;;0.50;;
5801;SDS011;2927;49.366;8.530;2024-03-29T00:45:42;1.80;;;0.60;;
5801;SDS011;2927;49.366;8.530;2024-03-29T00:48:07;2.20;;;0.60;;
5801;SDS011;2927;49.366;8.530;2024-03-29T00:50:33;0.83;;;0.60;;
5801;SDS011;2927;49.366;8.530;2024-03-29T00:52:59;0.77;;;0.63;;
5801;SDS011;2927;49.366;8.530;2024-03-29T00:55:24;0.70;;;0.40;;
5801;SDS011;2927;49.366;8.530;2024-03-29T00:57:50;1.27;;;1.03;;
5801;SDS011;2927;49.366;8.530;2024-03-29T01:00:15;1.03;;;0.70;;
5801;SDS011;2927;49.366;8.530;2024-03-29T01:02:41;2.03;;;0.43;;
5801;SDS011;2927;49.366;8.530;2024-03-29T01:05:07;2.47;;;1.33;;
5801;SDS011;2927;49.366;8.530;2024-03-29T01:07:32;0.67;;;0.57;;
5801;SDS011;2927;49.366;8.530;2024-03-29T01:09:58;1.27;;;0.50;;
5801;SDS011;2927;49.366;8.530;2024-03-29T01:12:24;1.33;;;0.60;;
5801;SDS011;2927;49.366;8.530;2024-03-29T01:14:49;1.20;;;0.50;;
5801;SDS011;2927;49.366;8.530;2024-03-29T01:17:15;2.20;;;0.83;;
5801;SDS011;2927;49.366;8.530;2024-03-29T01:19:41;0.90;;;0.63;;
5801;SDS011;2927;49.366;8.530;2024-03-29T01:22:06;1.80;;;0.50;;
5801;SDS011;2927;49.366;8.530;2024-03-29T01:24:33;0.50;;;0.50;;
5801;SDS011;2927;49.366;8.530;2024-03-29T01:26:59;0.57;;;0.40;;
5801;SDS011;2927;49.366;8.530;2024-03-29T01:29:24;2.40;;;0.77;;
5801;SDS011;2927;49.366;8.530;2024-03-29T01:31:50;1.00;;;0.60;;
5801;SDS011;2927;49.366;8.530;2024-03-29T01:34:16;0.73;;;0.60;;
5801;SDS011;2927;49.366;8.530;2024-03-29T01:36:42;0.30;;;0.30;;
5801;SDS011;2927;49.366;8.530;2024-03-29T01:39:07;1.23;;;0.40;;
5801;SDS011;2927;49.366;8.530;2024-03-29T01:41:35;0.73;;;0.40;;
5801;SDS011;2927;49.366;8.530;2024-03-29T01:44:00;1.13;;;0.50;;
5801;SDS011;2927;49.366;8.530;2024-03-29T01:46:26;0.60;;;0.40;;
5801;SDS011;2927;49.366;8.530;2024-03-29T01:48:52;0.70;;;0.60;;
5801;SDS011;2927;49.366;8.530;2024-03-29T01:51:19;6.10;;;0.67;;
5801;SDS011;2927;49.366;8.530;2024-03-29T01:53:47;0.87;;;0.43;;
5801;SDS011;2927;49.366;8.530;2024-03-29T01:56:14;0.43;;;0.40;;
5801;SDS011;2927;49.366;8.530;2024-03-29T01:58:41;2.73;;;0.67;;
5801;SDS011;2927;49.366;8.530;2024-03-29T02:01:06;1.80;;;0.60;;
5801;SDS011;2927;49.366;8.530;2024-03-29T02:03:32;0.60;;;0.40;;
5801;SDS011;2927;49.366;8.530;2024-03-29T02:05:58;2.20;;;0.40;;
5801;SDS011;2927;49.366;8.530;2024-03-29T02:08:26;0.40;;;0.40;;
5801;SDS011;2927;49.366;8.530;2024-03-29T02:10:53;1.03;;;0.70;;
5801;SDS011;2927;49.366;8.530;2024-03-29T02:13:19;1.30;;;0.70;;
5801;SDS011;2927;49.366;8.530;2024-03-29T02:15:45;2.40;;;0.60;;
5801;SDS011;2927;49.366;8.530;2024-03-29T02:18:10;0.53;;;0.40;;
5801;SDS011;2927;49.366;8.530;2024-03-29T02:20:36;3.10;;;0.50;;
5801;SDS011;2927;49.366;8.530;2024-03-29T02:23:11;1.33;;;0.50;;
5801;SDS011;2927;49.366;8.530;2024-03-29T02:25:41;7.10;;;0.53;;
5801;SDS011;2927;49.366;8.530;2024-03-29T02:28:06;0.70;;;0.40;;
5801;SDS011;2927;49.366;8.530;2024-03-29T02:30:32;1.10;;;0.50;;
5801;SDS011;2927;49.366;8.530;2024-03-29T02:32:58;1.47;;;0.53;;
5801;SDS011;2927;49.366;8.530;2024-03-29T02:35:24;0.97;;;0.30;;
5801;SDS011;2927;49.366;8.530;2024-03-29T02:37:51;1.17;;;0.53;;
5801;SDS011;2927;49.366;8.530;2024-03-29T02:40:17;1.97;;;0.50;;
5801;SDS011;2927;49.366;8.530;2024-03-29T02:42:43;1.30;;;0.73;;
5801;SDS011;2927;49.366;8.530;2024-03-29T02:45:08;0.47;;;0.47;;
5801;SDS011;2927;49.366;8.530;2024-03-29T02:47:34;1.27;;;0.40;;
5801;SDS011;2927;49.366;8.530;2024-03-29T02:50:00;0.60;;;0.60;;
5801;SDS011;2927;49.366;8.530;2024-03-29T02:52:25;0.60;;;0.40;;
5801;SDS011;2927;49.366;8.530;2024-03-29T02:54:51;0.63;;;0.57;;
5801;SDS011;2927;49.366;8.530;2024-03-29T02:57:17;0.60;;;0.43;;
5801;SDS011;2927;49.366;8.530;2024-03-29T02:59:42;0.63;;;0.40;;
5801;SDS011;2927;49.366;8.530;2024-03-29T03:02:08;1.23;;;0.43;;
5801;SDS011;2927;49.366;8.530;2024-03-29T03:04:33;1.27;;;0.40;;
5801;SDS011;2927;49.366;8.530;2024-03-29T03:06:59;0.50;;;0.50;;
5801;SDS011;2927;49.366;8.530;2024-03-29T03:09:51;0.40;;;0.40;;
5801;SDS011;2927;49.366;8.530;2024-03-29T03:12:35;1.37;;;0.50;;
5801;SDS011;2927;49.366;8.530;2024-03-29T03:15:00;0.37;;;0.37;;
5801;SDS011;2927;49.366;8.530;2024-03-29T03:17:26;1.80;;;0.90;;
5801;SDS011;2927;49.366;8.530;2024-03-29T03:19:53;0.70;;;0.50;;
5801;SDS011;2927;49.366;8.530;2024-03-29T03:22:18;1.70;;;0.47;;
5801;SDS011;2927;49.366;8.530;2024-03-29T03:24:44;1.80;;;0.60;;
5801;SDS011;2927;49.366;8.530;2024-03-29T03:27:10;3.30;;;0.40;;
5801;SDS011;2927;49.366;8.530;2024-03-29T03:29:35;0.40;;;0.30;;
5801;SDS011;2927;49.366;8.530;2024-03-29T03:32:01;0.97;;;0.30;;
5801;SDS011;2927;49.366;8.530;2024-03-29T03:34:26;0.80;;;0.33;;
5801;SDS011;2927;49.366;8.530;2024-03-29T03:36:52;0.33;;;0.33;;
5801;SDS011;2927;49.366;8.530;2024-03-29T03:39:18;0.40;;;0.40;;
5801;SDS011;2927;49.366;8.530;2024-03-29T03:41:43;0.40;;;0.40;;
5801;SDS011;2927;49.366;8.530;2024-03-29T03:44:09;0.97;;;0.47;;
5801;SDS011;2927;49.366;8.530;2024-03-29T03:46:34;1.23;;;0.57;;
5801;SDS011;2927;49.366;8.530;2024-03-29T03:49:00;0.77;;;0.50;;
5801;SDS011;2927;49.366;8.530;2024-03-29T03:51:26;0.83;;;0.60;;
5801;SDS011;2927;49.366;8.530;2024-03-29T03:53:51;1.40;;;0.50;;
5801;SDS011;2927;49.366;8.530;2024-03-29T03:56:17;0.60;;;0.40;;
5801;SDS011;2927;49.366;8.530;2024-03-29T03:58:45;3.43;;;0.40;;
5801;SDS011;2927;49.366;8.530;2024-03-29T04:01:11;0.40;;;0.30;;
5801;SDS011;2927;49.366;8.530;2024-03-29T04:03:37;4.87;;;0.50;;
5801;SDS011;2927;49.366;8.530;2024-03-29T04:06:04;4.57;;;0.30;;
5801;SDS011;2927;49.366;8.530;2024-03-29T04:08:31;1.70;;;0.30;;
5801;SDS011;2927;49.366;8.530;2024-03-29T04:10:56;0.90;;;0.50;;
5801;SDS011;2927;49.366;8.530;2024-03-29T04:13:22;2.50;;;0.67;;
5801;SDS011;2927;49.366;8.530;2024-03-29T04:15:48;0.70;;;0.40;;
5801;SDS011;2927;49.366;8.530;2024-03-29T04:18:13;9.30;;;0.60;;
5801;SDS011;2927;49.366;8.530;2024-03-29T04:20:39;4.90;;;0.77;;
5801;SDS011;2927;49.366;8.530;2024-03-29T04:23:05;0.70;;;0.70;;
5801;SDS011;2927;49.366;8.530;2024-03-29T04:25:31;0.60;;;0.60;;
5801;SDS011;2927;49.366;8.530;2024-03-29T04:27:56;0.77;;;0.30;;
5801;SDS011;2927;49.366;8.530;2024-03-29T04:30:23;1.77;;;0.57;;
5801;SDS011;2927;49.366;8.530;2024-03-29T04:32:48;0.83;;;0.40;;
5801;SDS011;2927;49.366;8.530;2024-03-29T04:35:14;1.70;;;0.40;;
5801;SDS011;2927;49.366;8.530;2024-03-29T04:37:40;1.97;;;0.50;;
5801;SDS011;2927;49.366;8.530;2024-03-29T04:40:05;2.40;;;0.30;;
5801;SDS011;2927;49.366;8.530;2024-03-29T04:42:31;0.90;;;0.47;;
5801;SDS011;2927;49.366;8.530;2024-03-29T04:44:57;0.50;;;0.50;;
5801;SDS011;2927;49.366;8.530;2024-03-29T04:47:22;5.87;;;0.70;;
5801;SDS011;2927;49.366;8.530;2024-03-29T04:49:48;0.30;;;0.30;;
5801;SDS011;2927;49.366;8.530;2024-03-29T04:52:13;0.40;;;0.40;;
5801;SDS011;2927;49.366;8.530;2024-03-29T04:54:39;0.87;;;0.40;;
5801;SDS011;2927;49.366;8.530;2024-03-29T04:57:05;0.40;;;0.40;;
5801;SDS011;2927;49.366;8.530;2024-03-29T04:59:31;0.30;;;0.30;;
5801;SDS011;2927;49.366;8.530;2024-03-29T05:02:01;0.30;;;0.30;;
5801;SDS011;2927;49.366;8.530;2024-03-29T05:04:27;0.80;;;0.50;;
5801;SDS011;2927;49.366;8.530;2024-03-29T05:09:19;0.50;;;0.43;;
5801;SDS011;2927;49.366;8.530;2024-03-29T05:11:45;2.57;;;0.50;;
5801;SDS011;2927;49.366;8.530;2024-03-29T05:14:17;1.37;;;0.50;;
5801;SDS011;2927;49.366;8.530;2024-03-29T05:16:44;0.60;;;0.30;;
5801;SDS011;2927;49.366;8.530;2024-03-29T05:19:11;0.43;;;0.43;;
5801;SDS011;2927;49.366;8.530;2024-03-29T05:21:37;0.60;;;0.40;;
5801;SDS011;2927;49.366;8.530;2024-03-29T05:24:02;0.47;;;0.47;;
5801;SDS011;2927;49.366;8.530;2024-03-29T05:26:28;0.77;;;0.43;;
5801;SDS011;2927;49.366;8.530;2024-03-29T05:28:56;0.57;;;0.57;;
5801;SDS011;2927;49.366;8.530;2024-03-29T05:31:23;0.70;;;0.47;;
5801;SDS011;2927;49.366;8.530;2024-03-29T05:33:49;2.63;;;0.40;;
5801;SDS011;2927;49.366;8.530;2024-03-29T05:36:15;0.60;;;0.30;;
5801;SDS011;2927;49.366;8.530;2024-03-29T05:38:41;1.27;;;0.40;;
5801;SDS011;2927;49.366;8.530;2024-03-29T05:41:06;0.40;;;0.30;;
5801;SDS011;2927;49.366;8.530;2024-03-29T05:43:32;0.67;;;0.40;;
5801;SDS011;2927;49.366;8.530;2024-03-29T05:45:57;0.30;;;0.30;;
5801;SDS011;2927;49.366;8.530;2024-03-29T05:48:25;0.53;;;0.40;;
5801;SDS011;2927;49.366;8.530;2024-03-29T05:50:51;1.03;;;0.40;;
5801;SDS011;2927;49.366;8.530;2024-03-29T05:53:16;0.30;;;0.30;;
5801;SDS011;2927;49.366;8.530;2024-03-29T05:55:42;0.40;;;0.30;;
5801;SDS011;2927;49.366;8.530;2024-03-29T05:58:07;0.30;;;0.30;;
5801;SDS011;2927;49.366;8.530;2024-03-29T06:00:33;0.30;;;0.30;;
5801;SDS011;2927;49.366;8.530;2024-03-29T06:02:59;2.03;;;0.47;;
5801;SDS011;2927;49.366;8.530;2024-03-29T06:05:27;0.83;;;0.37;;
5801;SDS011;2927;49.366;8.530;2024-03-29T06:07:53;0.50;;;0.30;;
5801;SDS011;2927;49.366;8.530;2024-03-29T06:10:19;0.90;;;0.40;;
5801;SDS011;2927;49.366;8.530;2024-03-29T06:12:44;5.93;;;0.40;;
5801;SDS011;2927;49.366;8.530;2024-03-29T06:15:10;0.40;;;0.40;;
5801;SDS011;2927;49.366;8.530;2024-03-29T06:17:54;0.90;;;0.40;;
5801;SDS011;2927;49.366;8.530;2024-03-29T06:20:19;0.80;;;0.40;;
5801;SDS011;2927;49.366;8.530;2024-03-29T06:22:45;1.10;;;0.50;;
5801;SDS011;2927;49.366;8.530;2024-03-29T06:25:10;0.40;;;0.40;;
5801;SDS011;2927;49.366;8.530;2024-03-29T06:27:36;0.30;;;0.30;;
5801;SDS011;2927;49.366;8.530;2024-03-29T06:30:05;1.33;;;0.50;;
5801;SDS011;2927;49.366;8.530;2024-03-29T06:32:33;0.50;;;0.30;;
5801;SDS011;2927;49.366;8.530;2024-03-29T06:34:59;1.13;;;0.40;;
5801;SDS011;2927;49.366;8.530;2024-03-29T06:37:25;0.40;;;0.40;;
5801;SDS011;2927;49.366;8.530;2024-03-29T06:39:51;0.80;;;0.50;;
5801;SDS011;2927;49.366;8.530;2024-03-29T06:42:17;1.80;;;0.60;;
5801;SDS011;2927;49.366;8.530;2024-03-29T06:44:43;1.40;;;0.40;;
5801;SDS011;2927;49.366;8.530;2024-03-29T06:47:09;0.50;;;0.43;;
5801;SDS011;2927;49.366;8.530;2024-03-29T06:49:34;0.43;;;0.40;;
5801;SDS011;2927;49.366;8.530;2024-03-29T06:52:00;0.40;;;0.30;;
5801;SDS011;2927;49.366;8.530;2024-03-29T06:54:27;0.97;;;0.40;;
5801;SDS011;2927;49.366;8.530;2024-03-29T06:56:53;0.30;;;0.30;;
5801;SDS011;2927;49.366;8.530;2024-03-29T06:59:19;0.63;;;0.50;;
5801;SDS011;2927;49.366;8.530;2024-03-29T07:01:45;0.53;;;0.40;;
5801;SDS011;2927;49.366;8.530;2024-03-29T07:04:12;0.40;;;0.40;;
5801;SDS011;2927;49.366;8.530;2024-03-29T07:06:41;0.73;;;0.57;;
5801;SDS011;2927;49.366;8.530;2024-03-29T07:09:07;0.57;;;0.37;;
5801;SDS011;2927;49.366;8.530;2024-03-29T07:11:34;0.30;;;0.30;;
5801;SDS011;2927;49.366;8.530;2024-03-29T07:14:00;0.40;;;0.40;;
5801;SDS011;2927;49.366;8.530;2024-03-29T07:16:25;0.40;;;0.40;;
5801;SDS011;2927;49.366;8.530;2024-03-29T07:18:51;0.40;;;0.40;;
5801;SDS011;2927;49.366;8.530;2024-03-29T07:21:16;0.30;;;0.30;;
5801;SDS011;2927;49.366;8.530;2024-03-29T07:23:42;0.50;;;0.50;;
5801;SDS011;2927;49.366;8.530;2024-03-29T07:26:07;2.33;;;0.40;;
5801;SDS011;2927;49.366;8.530;2024-03-29T07:28:33;0.60;;;0.60;;
5801;SDS011;2927;49.366;8.530;2024-03-29T07:31:04;0.50;;;0.47;;
5801;SDS011;2927;49.366;8.530;2024-03-29T07:33:31;0.60;;;0.50;;
5801;SDS011;2927;49.366;8.530;2024-03-29T07:35:57;0.50;;;0.30;;
5801;SDS011;2927;49.366;8.530;2024-03-29T07:38:23;2.20;;;0.50;;
5801;SDS011;2927;49.366;8.530;2024-03-29T07:40:49;0.70;;;0.43;;
5801;SDS011;2927;49.366;8.530;2024-03-29T07:43:15;0.77;;;0.40;;
5801;SDS011;2927;49.366;8.530;2024-03-29T07:45:41;0.97;;;0.57;;
5801;SDS011;2927;49.366;8.530;2024-03-29T07:48:12;0.80;;;0.40;;
5801;SDS011;2927;49.366;8.530;2024-03-29T07:50:42;0.83;;;0.40;;
5801;SDS011;2927;49.366;8.530;2024-03-29T07:53:09;0.43;;;0.40;;
5801;SDS011;2927;49.366;8.530;2024-03-29T07:55:35;0.40;;;0.30;;
5801;SDS011;2927;49.366;8.530;2024-03-29T07:58:05;0.50;;;0.40;;
5801;SDS011;2927;49.366;8.530;2024-03-29T08:00:31;0.60;;;0.33;;
5801;SDS011;2927;49.366;8.530;2024-03-29T08:02:57;0.40;;;0.40;;
5801;SDS011;2927;49.366;8.530;2024-03-29T08:05:23;8.43;;;2.90;;
5801;SDS011;2927;49.366;8.530;2024-03-29T08:07:49;1.27;;;1.17;;
5801;SDS011;2927;49.366;8.530;2024-03-29T08:10:14;0.50;;;0.50;;
5801;SDS011;2927;49.366;8.530;2024-03-29T08:12:40;0.60;;;0.57;;
5801;SDS011;2927;49.366;8.530;2024-03-29T08:15:06;0.30;;;0.30;;
5801;SDS011;2927;49.366;8.530;2024-03-29T08:17:33;1.43;;;0.53;;
5801;SDS011;2927;49.366;8.530;2024-03-29T08:19:58;0.63;;;0.50;;
5801;SDS011;2927;49.366;8.530;2024-03-29T08:22:24;0.33;;;0.33;;
5801;SDS011;2927;49.366;8.530;2024-03-29T08:24:49;1.87;;;0.30;;
5801;SDS011;2927;49.366;8.530;2024-03-29T08:27:15;0.50;;;0.40;;
5801;SDS011;2927;49.366;8.530;2024-03-29T08:29:41;0.50;;;0.40;;
5801;SDS011;2927;49.366;8.530;2024-03-29T08:32:07;0.40;;;0.40;;
5801;SDS011;2927;49.366;8.530;2024-03-29T08:34:35;1.03;;;0.57;;
5801;SDS011;2927;49.366;8.530;2024-03-29T08:37:03;0.70;;;0.50;;
5801;SDS011;2927;49.366;8.530;2024-03-29T08:39:32;0.40;;;0.40;;
5801;SDS011;2927;49.366;8.530;2024-03-29T08:41:58;1.87;;;0.50;;
5801;SDS011;2927;49.366;8.530;2024-03-29T08:44:24;1.13;;;0.70;;
5801;SDS011;2927;49.366;8.530;2024-03-29T08:46:50;1.80;;;0.80;;
5801;SDS011;2927;49.366;8.530;2024-03-29T08:49:16;0.70;;;0.70;;
5801;SDS011;2927;49.366;8.530;2024-03-29T08:51:41;0.77;;;0.67;;
5801;SDS011;2927;49.366;8.530;2024-03-29T08:54:07;0.77;;;0.63;;
5801;SDS011;2927;49.366;8.530;2024-03-29T08:56:33;2.03;;;1.27;;
5801;SDS011;2927;49.366;8.530;2024-03-29T08:59:02;4.47;;;0.90;;
5801;SDS011;2927;49.366;8.530;2024-03-29T09:01:32;2.30;;;1.67;;
5801;SDS011;2927;49.366;8.530;2024-03-29T09:04:01;2.57;;;1.67;;
5801;SDS011;2927;49.366;8.530;2024-03-29T09:06:29;1.17;;;0.90;;
5801;SDS011;2927;49.366;8.530;2024-03-29T09:08:54;1.00;;;0.87;;
5801;SDS011;2927;49.366;8.530;2024-03-29T09:11:20;3.17;;;1.37;;
5801;SDS011;2927;49.366;8.530;2024-03-29T09:13:45;4.13;;;1.23;;
5801;SDS011;2927;49.366;8.530;2024-03-29T09:16:11;1.20;;;1.03;;
5801;SDS011;2927;49.366;8.530;2024-03-29T09:18:37;0.60;;;0.60;;
5801;SDS011;2927;49.366;8.530;2024-03-29T09:21:02;1.37;;;0.80;;
5801;SDS011;2927;49.366;8.530;2024-03-29T09:23:28;1.13;;;1.00;;
5801;SDS011;2927;49.366;8.530;2024-03-29T09:25:57;2.23;;;0.80;;
5801;SDS011;2927;49.366;8.530;2024-03-29T09:28:23;0.93;;;0.83;;
5801;SDS011;2927;49.366;8.530;2024-03-29T09:30:49;2.27;;;0.63;;
5801;SDS011;2927;49.366;8.530;2024-03-29T09:33:15;1.60;;;0.77;;
5801;SDS011;2927;49.366;8.530;2024-03-29T09:35:41;1.50;;;0.57;;
5801;SDS011;2927;49.366;8.530;2024-03-29T09:38:06;0.73;;;0.73;;
5801;SDS011;2927;49.366;8.530;2024-03-29T09:40:32;0.70;;;0.70;;
5801;SDS011;2927;49.366;8.530;2024-03-29T09:42:59;0.90;;;0.90;;
5801;SDS011;2927;49.366;8.530;2024-03-29T09:45:30;1.37;;;0.80;;
5801;SDS011;2927;49.366;8.530;2024-03-29T09:48:00;7.60;;;1.07;;
5801;SDS011;2927;49.366;8.530;2024-03-29T09:50:27;0.90;;;0.90;;
5801;SDS011;2927;49.366;8.530;2024-03-29T09:52:53;3.00;;;1.20;;
5801;SDS011;2927;49.366;8.530;2024-03-29T09:55:20;1.40;;;0.70;;
5801;SDS011;2927;49.366;8.530;2024-03-29T09:57:46;2.40;;;1.10;;
5801;SDS011;2927;49.366;8.530;2024-03-29T10:00:12;4.43;;;1.17;;
5801;SDS011;2927;49.366;8.530;2024-03-29T10:02:38;1.43;;;1.30;;
5801;SDS011;2927;49.366;8.530;2024-03-29T10:05:04;3.90;;;0.90;;
5801;SDS011;2927;49.366;8.530;2024-03-29T10:07:33;3.20;;;1.27;;
5801;SDS011;2927;49.366;8.530;2024-03-29T10:10:01;1.30;;;1.13;;
5801;SDS011;2927;49.366;8.530;2024-03-29T10:12:27;1.90;;;1.10;;
5801;SDS011;2927;49.366;8.530;2024-03-29T10:14:53;0.83;;;0.83;;
5801;SDS011;2927;49.366;8.530;2024-03-29T10:17:33;2.97;;;1.07;;
5801;SDS011;2927;49.366;8.530;2024-03-29T10:20:02;0.80;;;0.77;;
5801;SDS011;2927;49.366;8.530;2024-03-29T10:22:28;1.43;;;1.00;;
5801;SDS011;2927;49.366;8.530;2024-03-29T10:24:56;2.60;;;0.80;;
5801;SDS011;2927;49.366;8.530;2024-03-29T10:27:24;2.03;;;1.83;;
5801;SDS011;2927;49.366;8.530;2024-03-29T10:29:52;3.40;;;1.90;;
5801;SDS011;2927;49.366;8.530;2024-03-29T10:32:18;1.37;;;1.13;;
5801;SDS011;2927;49.366;8.530;2024-03-29T10:34:44;3.13;;;1.20;;
5801;SDS011;2927;49.366;8.530;2024-03-29T10:37:09;4.93;;;1.10;;
5801;SDS011;2927;49.366;8.530;2024-03-29T10:39:35;3.53;;;1.23;;
5801;SDS011;2927;49.366;8.530;2024-03-29T10:42:01;3.23;;;1.00;;
5801;SDS011;2927;49.366;8.530;2024-03-29T10:44:28;3.70;;;1.30;;
5801;SDS011;2927;49.366;8.530;2024-03-29T10:46:55;3.07;;;1.40;;
5801;SDS011;2927;49.366;8.530;2024-03-29T10:49:23;3.23;;;1.20;;
5801;SDS011;2927;49.366;8.530;2024-03-29T10:51:48;1.80;;;1.00;;
5801;SDS011;2927;49.366;8.530;2024-03-29T10:54:16;4.00;;;1.63;;
5801;SDS011;2927;49.366;8.530;2024-03-29T10:56:42;5.53;;;1.27;;
5801;SDS011;2927;49.366;8.530;2024-03-29T10:59:12;7.00;;;1.43;;
5801;SDS011;2927;49.366;8.530;2024-03-29T11:01:56;1.37;;;1.10;;
5801;SDS011;2927;49.366;8.530;2024-03-29T11:04:30;1.63;;;0.77;;
5801;SDS011;2927;49.366;8.530;2024-03-29T11:06:59;0.70;;;0.70;;
5801;SDS011;2927;49.366;8.530;2024-03-29T11:09:29;1.37;;;0.60;;
5801;SDS011;2927;49.366;8.530;2024-03-29T11:11:58;1.27;;;0.93;;
5801;SDS011;2927;49.366;8.530;2024-03-29T11:14:37;1.70;;;0.93;;
5801;SDS011;2927;49.366;8.530;2024-03-29T11:17:07;1.80;;;0.60;;
5801;SDS011;2927;49.366;8.530;2024-03-29T11:19:34;1.17;;;0.90;;
5801;SDS011;2927;49.366;8.530;2024-03-29T11:22:01;3.60;;;1.20;;
5801;SDS011;2927;49.366;8.530;2024-03-29T11:24:28;3.20;;;1.10;;
5801;SDS011;2927;49.366;8.530;2024-03-29T11:26:54;3.13;;;0.67;;
5801;SDS011;2927;49.366;8.530;2024-03-29T11:29:20;1.17;;;1.07;;
5801;SDS011;2927;49.366;8.530;2024-03-29T11:31:47;1.70;;;0.90;;
5801;SDS011;2927;49.366;8.530;2024-03-29T11:34:18;1.80;;;1.33;;
5801;SDS011;2927;49.366;8.530;2024-03-29T11:36:45;0.90;;;0.90;;
5801;SDS011;2927;49.366;8.530;2024-03-29T11:39:19;3.00;;;0.90;;
5801;SDS011;2927;49.366;8.530;2024-03-29T11:41:46;0.83;;;0.60;;
5801;SDS011;2927;49.366;8.530;2024-03-29T11:44:13;0.70;;;0.70;;
5801;SDS011;2927;49.366;8.530;2024-03-29T11:46:39;0.60;;;0.60;;
5801;SDS011;2927;49.366;8.530;2024-03-29T11:49:05;2.43;;;0.90;;
5801;SDS011;2927;49.366;8.530;2024-03-29T11:51:31;1.63;;;1.00;;
5801;SDS011;2927;49.366;8.530;2024-03-29T11:53:56;0.93;;;0.93;;
5801;SDS011;2927;49.366;8.530;2024-03-29T11:56:22;1.43;;;0.70;;
5801;SDS011;2927;49.366;8.530;2024-03-29T11:58:48;0.73;;;0.60;;
5801;SDS011;2927;49.366;8.530;2024-03-29T12:01:13;0.87;;;0.87;;
5801;SDS011;2927;49.366;8.530;2024-03-29T12:03:40;1.40;;;1.10;;
5801;SDS011;2927;49.366;8.530;2024-03-29T12:06:06;1.13;;;0.90;;
5801;SDS011;2927;49.366;8.530;2024-03-29T12:08:33;1.30;;;1.13;;
5801;SDS011;2927;49.366;8.530;2024-03-29T12:11:00;1.23;;;1.13;;
5801;SDS011;2927;49.366;8.530;2024-03-29T12:13:27;2.33;;;2.10;;
5801;SDS011;2927;49.366;8.530;2024-03-29T12:15:53;3.17;;;2.87;;
5801;SDS011;2927;49.366;8.530;2024-03-29T12:18:20;1.70;;;1.60;;
5801;SDS011;2927;49.366;8.530;2024-03-29T12:20:47;1.70;;;1.60;;
5801;SDS011;2927;49.366;8.530;2024-03-29T12:23:17;3.47;;;1.63;;
5801;SDS011;2927;49.366;8.530;2024-03-29T12:25:44;2.30;;;1.23;;
5801;SDS011;2927;49.366;8.530;2024-03-29T12:28:11;2.00;;;1.70;;
5801;SDS011;2927;49.366;8.530;2024-03-29T12:30:37;3.13;;;2.07;;
5801;SDS011;2927;49.366;8.530;2024-03-29T12:33:07;2.20;;;2.00;;
5801;SDS011;2927;49.366;8.530;2024-03-29T12:35:35;1.50;;;1.40;;
5801;SDS011;2927;49.366;8.530;2024-03-29T12:38:02;3.10;;;2.03;;
5801;SDS011;2927;49.366;8.530;2024-03-29T12:40:28;3.00;;;2.47;;
5801;SDS011;2927;49.366;8.530;2024-03-29T12:43:01;3.67;;;2.70;;
5801;SDS011;2927;49.366;8.530;2024-03-29T12:45:32;3.10;;;1.40;;
5801;SDS011;2927;49.366;8.530;2024-03-29T12:47:58;1.30;;;1.20;;
5801;SDS011;2927;49.366;8.530;2024-03-29T12:50:25;2.87;;;1.63;;
5801;SDS011;2927;49.366;8.530;2024-03-29T12:52:53;3.10;;;1.70;;
5801;SDS011;2927;49.366;8.530;2024-03-29T12:55:20;6.50;;;3.93;;
5801;SDS011;2927;49.366;8.530;2024-03-29T12:57:46;13.73;;;6.87;;
5801;SDS011;2927;49.366;8.530;2024-03-29T13:00:12;2.37;;;2.23;;
5801;SDS011;2927;49.366;8.530;2024-03-29T13:02:37;4.20;;;2.50;;
5801;SDS011;2927;49.366;8.530;2024-03-29T13:05:03;7.53;;;4.50;;
5801;SDS011;2927;49.366;8.530;2024-03-29T13:07:33;4.40;;;2.43;;
5801;SDS011;2927;49.366;8.530;2024-03-29T13:10:02;24.83;;;12.73;;
5801;SDS011;2927;49.366;8.530;2024-03-29T13:12:35;6.03;;;3.07;;
5801;SDS011;2927;49.366;8.530;2024-03-29T13:15:02;5.83;;;2.20;;
5801;SDS011;2927;49.366;8.530;2024-03-29T13:17:31;5.97;;;3.70;;
5801;SDS011;2927;49.366;8.530;2024-03-29T13:19:57;4.90;;;3.53;;
5801;SDS011;2927;49.366;8.530;2024-03-29T13:22:22;3.63;;;2.43;;
5801;SDS011;2927;49.366;8.530;2024-03-29T13:24:48;4.03;;;3.63;;
5801;SDS011;2927;49.366;8.530;2024-03-29T13:27:15;2.23;;;2.13;;
5801;SDS011;2927;49.366;8.530;2024-03-29T13:29:41;3.80;;;2.77;;
5801;SDS011;2927;49.366;8.530;2024-03-29T13:32:07;8.03;;;2.07;;
5801;SDS011;2927;49.366;8.530;2024-03-29T13:34:32;3.17;;;2.77;;
5801;SDS011;2927;49.366;8.530;2024-03-29T13:36:58;3.93;;;2.63;;
5801;SDS011;2927;49.366;8.530;2024-03-29T13:39:23;5.73;;;2.70;;
5801;SDS011;2927;49.366;8.530;2024-03-29T13:41:49;3.70;;;2.97;;
5801;SDS011;2927;49.366;8.530;2024-03-29T13:44:15;6.10;;;3.37;;
5801;SDS011;2927;49.366;8.530;2024-03-29T13:46:42;4.77;;;3.47;;
5801;SDS011;2927;49.366;8.530;2024-03-29T13:49:08;5.20;;;3.00;;
5801;SDS011;2927;49.366;8.530;2024-03-29T13:51:34;5.23;;;3.10;;
5801;SDS011;2927;49.366;8.530;2024-03-29T13:53:59;5.57;;;4.13;;
5801;SDS011;2927;49.366;8.530;2024-03-29T13:56:25;3.90;;;3.40;;
5801;SDS011;2927;49.366;8.530;2024-03-29T13:58:50;7.03;;;3.90;;
5801;SDS011;2927;49.366;8.530;2024-03-29T14:01:17;4.20;;;3.50;;
5801;SDS011;2927;49.366;8.530;2024-03-29T14:03:42;7.23;;;4.20;;
5801;SDS011;2927;49.366;8.530;2024-03-29T14:06:08;6.17;;;4.80;;
5801;SDS011;2927;49.366;8.530;2024-03-29T14:08:34;6.23;;;4.50;;
5801;SDS011;2927;49.366;8.530;2024-03-29T14:11:00;6.50;;;4.40;;
5801;SDS011;2927;49.366;8.530;2024-03-29T14:13:26;4.63;;;3.43;;
5801;SDS011;2927;49.366;8.530;2024-03-29T14:15:52;5.70;;;4.00;;
5801;SDS011;2927;49.366;8.530;2024-03-29T14:18:19;4.10;;;3.47;;
5801;SDS011;2927;49.366;8.530;2024-03-29T14:20:44;5.27;;;4.77;;
5801;SDS011;2927;49.366;8.530;2024-03-29T14:23:10;7.90;;;3.70;;
5801;SDS011;2927;49.366;8.530;2024-03-29T14:25:37;8.87;;;4.30;;
5801;SDS011;2927;49.366;8.530;2024-03-29T14:28:03;6.63;;;5.43;;
5801;SDS011;2927;49.366;8.530;2024-03-29T14:30:29;5.70;;;4.27;;
5801;SDS011;2927;49.366;8.530;2024-03-29T14:32:55;6.33;;;4.27;;
5801;SDS011;2927;49.366;8.530;2024-03-29T14:35:21;7.40;;;3.47;;
5801;SDS011;2927;49.366;8.530;2024-03-29T14:37:46;7.80;;;3.20;;
5801;SDS011;2927;49.366;8.530;2024-03-29T14:40:12;2.67;;;2.47;;
5801;SDS011;2927;49.366;8.530;2024-03-29T14:42:40;7.37;;;2.10;;
5801;SDS011;2927;49.366;8.530;2024-03-29T14:45:06;3.00;;;2.00;;
5801;SDS011;2927;49.366;8.530;2024-03-29T14:47:32;2.10;;;1.87;;
5801;SDS011;2927;49.366;8.530;2024-03-29T14:50:01;1.57;;;1.47;;
5801;SDS011;2927;49.366;8.530;2024-03-29T14:52:29;4.77;;;3.23;;
5801;SDS011;2927;49.366;8.530;2024-03-29T14:55:01;1.47;;;1.40;;
5801;SDS011;2927;49.366;8.530;2024-03-29T14:57:27;2.47;;;2.30;;
5801;SDS011;2927;49.366;8.530;2024-03-29T14:59:53;3.70;;;2.07;;
5801;SDS011;2927;49.366;8.530;2024-03-29T15:02:19;3.80;;;3.43;;
5801;SDS011;2927;49.366;8.530;2024-03-29T15:04:44;7.70;;;3.43;;
5801;SDS011;2927;49.366;8.530;2024-03-29T15:07:10;7.50;;;4.20;;
5801;SDS011;2927;49.366;8.530;2024-03-29T15:09:36;8.50;;;6.60;;
5801;SDS011;2927;49.366;8.530;2024-03-29T15:12:01;5.57;;;4.37;;
5801;SDS011;2927;49.366;8.530;2024-03-29T15:14:28;4.20;;;3.23;;